sensor_id;sensor_type;location;lat;lon;timestamp;temperature;humidity
3770;DHT22;1900;48.890;9.190;2024-01-15T00:02:23;2.30;57.00
3770;DHT22;1900;48.890;9.190;2024-01-15T00:04:48;2.30;57.00
3770;DHT22;1900;48.890;9.190;2024-01-15T00:07:14;2.30;57.00
3770;DHT22;1900;48.890;9.190;2024-01-15T00:09:40;2.30;57.00
3770;DHT22;1900;48.890;9.190;2024-01-15T00:12:06;2.30;57.00
3770;DHT22;1900;48.890;9.190;2024-01-15T00:14:32;2.30;57.00
3770;DHT22;1900;48.890;9.190;2024-01-15T00:16:57;2.30;56.90
3770;DHT22;1900;48.890;9.190;2024-01-15T00:19:23;2.30;56.90
3770;DHT22;1900;48.890;9.190;2024-01-15T00:21:50;2.40;57.00
3770;DHT22;1900;48.890;9.190;2024-01-15T00:24:16;2.40;56.90
3770;DHT22;1900;48.890;9.190;2024-01-15T00:26:41;2.30;56.90
3770;DHT22;1900;48.890;9.190;2024-01-15T00:29:08;2.40;56.90
3770;DHT22;1900;48.890;9.190;2024-01-15T00:31:34;2.40;56.90
3770;DHT22;1900;48.890;9.190;2024-01-15T00:34:00;2.30;56.90
3770;DHT22;1900;48.890;9.190;2024-01-15T00:36:26;2.40;56.90
3770;DHT22;1900;48.890;9.190;2024-01-15T00:38:53;2.40;56.90
3770;DHT22;1900;48.890;9.190;2024-01-15T00:41:20;2.30;56.70
3770;DHT22;1900;48.890;9.190;2024-01-15T00:43:46;2.40;56.80
3770;DHT22;1900;48.890;9.190;2024-01-15T00:46:15;2.40;56.80
3770;DHT22;1900;48.890;9.190;2024-01-15T00:48:41;2.40;56.80
3770;DHT22;1900;48.890;9.190;2024-01-15T00:51:06;2.40;56.80
3770;DHT22;1900;48.890;9.190;2024-01-15T00:53:32;2.40;56.80
3770;DHT22;1900;48.890;9.190;2024-01-15T00:55:58;2.40;56.90
3770;DHT22;1900;48.890;9.190;2024-01-15T00:58:25;2.40;56.90
3770;DHT22;1900;48.890;9.190;2024-01-15T01:00:51;2.40;56.90
3770;DHT22;1900;48.890;9.190;2024-01-15T01:03:17;2.40;56.90
3770;DHT22;1900;48.890;9.190;2024-01-15T01:05:43;2.40;57.00
3770;DHT22;1900;48.890;9.190;2024-01-15T01:08:09;2.40;57.00
3770;DHT22;1900;48.890;9.190;2024-01-15T01:10:35;2.40;57.00
3770;DHT22;1900;48.890;9.190;2024-01-15T01:13:01;2.40;57.40
3770;DHT22;1900;48.890;9.190;2024-01-15T01:15:27;2.50;57.10
3770;DHT22;1900;48.890;9.190;2024-01-15T01:17:53;2.50;57.30
3770;DHT22;1900;48.890;9.190;2024-01-15T01:20:18;2.50;57.20
3770;DHT22;1900;48.890;9.190;2024-01-15T01:22:44;2.50;57.30
3770;DHT22;1900;48.890;9.190;2024-01-15T01:25:10;2.60;57.40
3770;DHT22;1900;48.890;9.190;2024-01-15T01:27:36;2.60;57.40
3770;DHT22;1900;48.890;9.190;2024-01-15T01:30:02;2.60;57.40
3770;DHT22;1900;48.890;9.190;2024-01-15T01:32:28;2.60;57.30
3770;DHT22;1900;48.890;9.190;2024-01-15T01:34:54;2.60;57.20
3770;DHT22;1900;48.890;9.190;2024-01-15T01:37:20;2.60;57.20
3770;DHT22;1900;48.890;9.190;2024-01-15T01:39:45;2.60;57.20
3770;DHT22;1900;48.890;9.190;2024-01-15T01:42:12;2.70;57.20
3770;DHT22;1900;48.890;9.190;2024-01-15T01:44:38;2.60;57.10
3770;DHT22;1900;48.890;9.190;2024-01-15T01:47:04;2.60;57.00
3770;DHT22;1900;48.890;9.190;2024-01-15T01:49:30;2.60;57.10
3770;DHT22;1900;48.890;9.190;2024-01-15T01:51:57;2.60;57.10
3770;DHT22;1900;48.890;9.190;2024-01-15T01:54:25;2.70;57.20
3770;DHT22;1900;48.890;9.190;2024-01-15T01:56:52;2.70;57.20
3770;DHT22;1900;48.890;9.190;2024-01-15T01:59:18;2.60;57.20
3770;DHT22;1900;48.890;9.190;2024-01-15T02:01:44;2.70;57.30
3770;DHT22;1900;48.890;9.190;2024-01-15T02:04:11;2.70;57.40
3770;DHT22;1900;48.890;9.190;2024-01-15T02:06:37;2.70;57.40
3770;DHT22;1900;48.890;9.190;2024-01-15T02:09:04;2.70;57.50
3770;DHT22;1900;48.890;9.190;2024-01-15T02:11:31;2.80;57.60
3770;DHT22;1900;48.890;9.190;2024-01-15T02:13:57;2.80;57.70
3770;DHT22;1900;48.890;9.190;2024-01-15T02:16:23;2.80;57.60
3770;DHT22;1900;48.890;9.190;2024-01-15T02:18:49;2.90;57.70
3770;DHT22;1900;48.890;9.190;2024-01-15T02:21:15;2.90;57.80
3770;DHT22;1900;48.890;9.190;2024-01-15T02:23:41;2.90;57.80
3770;DHT22;1900;48.890;9.190;2024-01-15T02:26:07;2.90;57.80
3770;DHT22;1900;48.890;9.190;2024-01-15T02:28:34;3.00;57.90
3770;DHT22;1900;48.890;9.190;2024-01-15T02:31:00;3.00;57.80
3770;DHT22;1900;48.890;9.190;2024-01-15T02:33:25;3.00;57.80
3770;DHT22;1900;48.890;9.190;2024-01-15T02:35:51;3.00;57.80
3770;DHT22;1900;48.890;9.190;2024-01-15T02:38:17;3.00;57.80
3770;DHT22;1900;48.890;9.190;2024-01-15T02:40:49;3.10;57.90
3770;DHT22;1900;48.890;9.190;2024-01-15T02:43:15;3.10;57.90
3770;DHT22;1900;48.890;9.190;2024-01-15T02:45:41;3.10;58.00
3770;DHT22;1900;48.890;9.190;2024-01-15T02:48:06;3.10;58.00
3770;DHT22;1900;48.890;9.190;2024-01-15T02:50:32;3.20;58.10
3770;DHT22;1900;48.890;9.190;2024-01-15T02:52:57;3.20;58.00
3770;DHT22;1900;48.890;9.190;2024-01-15T02:55:23;3.20;58.10
3770;DHT22;1900;48.890;9.190;2024-01-15T02:57:49;3.30;58.10
3770;DHT22;1900;48.890;9.190;2024-01-15T03:00:15;3.20;58.00
3770;DHT22;1900;48.890;9.190;2024-01-15T03:02:41;3.30;58.00
3770;DHT22;1900;48.890;9.190;2024-01-15T03:05:09;3.30;58.00
3770;DHT22;1900;48.890;9.190;2024-01-15T03:07:35;3.30;58.00
3770;DHT22;1900;48.890;9.190;2024-01-15T03:10:01;3.30;58.10
3770;DHT22;1900;48.890;9.190;2024-01-15T03:12:27;3.30;57.90
3770;DHT22;1900;48.890;9.190;2024-01-15T03:14:52;3.30;57.90
3770;DHT22;1900;48.890;9.190;2024-01-15T03:17:18;3.30;57.90
3770;DHT22;1900;48.890;9.190;2024-01-15T03:19:44;3.30;57.90
3770;DHT22;1900;48.890;9.190;2024-01-15T03:22:10;3.30;57.90
3770;DHT22;1900;48.890;9.190;2024-01-15T03:24:36;3.30;57.90
3770;DHT22;1900;48.890;9.190;2024-01-15T03:27:02;3.30;57.90
3770;DHT22;1900;48.890;9.190;2024-01-15T03:29:28;3.40;58.00
3770;DHT22;1900;48.890;9.190;2024-01-15T03:31:54;3.40;57.90
3770;DHT22;1900;48.890;9.190;2024-01-15T03:34:20;3.40;57.90
3770;DHT22;1900;48.890;9.190;2024-01-15T03:36:46;3.40;58.00
3770;DHT22;1900;48.890;9.190;2024-01-15T03:39:12;3.40;58.00
3770;DHT22;1900;48.890;9.190;2024-01-15T03:41:37;3.40;58.00
3770;DHT22;1900;48.890;9.190;2024-01-15T03:44:03;3.40;58.10
3770;DHT22;1900;48.890;9.190;2024-01-15T03:46:29;3.40;58.00
3770;DHT22;1900;48.890;9.190;2024-01-15T03:48:54;3.40;58.00
3770;DHT22;1900;48.890;9.190;2024-01-15T03:51:20;3.40;58.00
3770;DHT22;1900;48.890;9.190;2024-01-15T03:53:46;3.40;58.00
3770;DHT22;1900;48.890;9.190;2024-01-15T03:56:12;3.50;58.10
3770;DHT22;1900;48.890;9.190;2024-01-15T03:58:38;3.50;58.10
3770;DHT22;1900;48.890;9.190;2024-01-15T04:01:08;3.50;58.10
3770;DHT22;1900;48.890;9.190;2024-01-15T04:03:34;3.50;58.00
3770;DHT22;1900;48.890;9.190;2024-01-15T04:05:59;3.50;57.90
3770;DHT22;1900;48.890;9.190;2024-01-15T04:08:25;3.50;57.90
3770;DHT22;1900;48.890;9.190;2024-01-15T04:10:51;3.50;58.00
3770;DHT22;1900;48.890;9.190;2024-01-15T04:13:16;3.50;57.90
3770;DHT22;1900;48.890;9.190;2024-01-15T04:15:42;3.50;57.90
3770;DHT22;1900;48.890;9.190;2024-01-15T04:18:08;3.40;57.80
3770;DHT22;1900;48.890;9.190;2024-01-15T04:20:34;3.50;57.80
3770;DHT22;1900;48.890;9.190;2024-01-15T04:23:00;3.50;57.80
3770;DHT22;1900;48.890;9.190;2024-01-15T04:25:26;3.40;57.80
3770;DHT22;1900;48.890;9.190;2024-01-15T04:27:51;3.40;57.80
3770;DHT22;1900;48.890;9.190;2024-01-15T04:30:17;3.40;57.90
3770;DHT22;1900;48.890;9.190;2024-01-15T04:32:43;3.40;57.90
3770;DHT22;1900;48.890;9.190;2024-01-15T04:35:08;3.50;58.10
3770;DHT22;1900;48.890;9.190;2024-01-15T04:37:34;3.50;58.10
3770;DHT22;1900;48.890;9.190;2024-01-15T04:40:00;3.50;58.10
3770;DHT22;1900;48.890;9.190;2024-01-15T04:42:25;3.50;58.20
3770;DHT22;1900;48.890;9.190;2024-01-15T04:44:51;3.50;58.20
3770;DHT22;1900;48.890;9.190;2024-01-15T04:47:17;3.50;58.20
3770;DHT22;1900;48.890;9.190;2024-01-15T04:49:43;3.60;58.30
3770;DHT22;1900;48.890;9.190;2024-01-15T04:52:08;3.60;58.30
3770;DHT22;1900;48.890;9.190;2024-01-15T04:54:36;3.60;58.30
3770;DHT22;1900;48.890;9.190;2024-01-15T04:57:02;3.60;58.30
3770;DHT22;1900;48.890;9.190;2024-01-15T04:59:28;3.60;58.30
3770;DHT22;1900;48.890;9.190;2024-01-15T05:01:54;3.70;58.40
3770;DHT22;1900;48.890;9.190;2024-01-15T05:04:20;3.70;58.40
3770;DHT22;1900;48.890;9.190;2024-01-15T05:06:46;3.70;58.40
3770;DHT22;1900;48.890;9.190;2024-01-15T05:09:12;3.70;58.40
3770;DHT22;1900;48.890;9.190;2024-01-15T05:11:39;3.70;58.40
3770;DHT22;1900;48.890;9.190;2024-01-15T05:14:05;3.70;58.40
3770;DHT22;1900;48.890;9.190;2024-01-15T05:16:30;3.80;58.50
3770;DHT22;1900;48.890;9.190;2024-01-15T05:18:56;3.80;58.50
3770;DHT22;1900;48.890;9.190;2024-01-15T05:21:22;3.80;58.50
3770;DHT22;1900;48.890;9.190;2024-01-15T05:23:48;3.80;58.50
3770;DHT22;1900;48.890;9.190;2024-01-15T05:26:13;3.80;59.10
3770;DHT22;1900;48.890;9.190;2024-01-15T05:28:41;3.90;58.60
3770;DHT22;1900;48.890;9.190;2024-01-15T05:31:08;3.90;58.60
3770;DHT22;1900;48.890;9.190;2024-01-15T05:33:34;3.90;58.60
3770;DHT22;1900;48.890;9.190;2024-01-15T05:36:00;3.90;58.60
3770;DHT22;1900;48.890;9.190;2024-01-15T05:38:26;3.90;58.60
3770;DHT22;1900;48.890;9.190;2024-01-15T05:40:51;3.90;58.60
3770;DHT22;1900;48.890;9.190;2024-01-15T05:43:17;4.00;58.70
3770;DHT22;1900;48.890;9.190;2024-01-15T05:45:43;4.00;58.60
3770;DHT22;1900;48.890;9.190;2024-01-15T05:48:10;4.00;58.60
3770;DHT22;1900;48.890;9.190;2024-01-15T05:50:36;4.00;58.60
3770;DHT22;1900;48.890;9.190;2024-01-15T05:53:01;4.00;58.60
3770;DHT22;1900;48.890;9.190;2024-01-15T05:55:28;4.00;58.60
3770;DHT22;1900;48.890;9.190;2024-01-15T05:57:54;4.00;58.60
3770;DHT22;1900;48.890;9.190;2024-01-15T06:00:19;4.10;58.60
3770;DHT22;1900;48.890;9.190;2024-01-15T06:02:45;4.10;58.60
3770;DHT22;1900;48.890;9.190;2024-01-15T06:05:11;4.10;58.60
3770;DHT22;1900;48.890;9.190;2024-01-15T06:07:37;4.10;58.60
3770;DHT22;1900;48.890;9.190;2024-01-15T06:10:03;4.10;58.70
3770;DHT22;1900;48.890;9.190;2024-01-15T06:12:30;4.10;58.70
3770;DHT22;1900;48.890;9.190;2024-01-15T06:14:56;4.10;58.70
3770;DHT22;1900;48.890;9.190;2024-01-15T06:17:22;4.10;58.70
3770;DHT22;1900;48.890;9.190;2024-01-15T06:19:47;4.10;58.70
3770;DHT22;1900;48.890;9.190;2024-01-15T06:22:13;4.20;58.80
3770;DHT22;1900;48.890;9.190;2024-01-15T06:24:39;4.20;58.70
3770;DHT22;1900;48.890;9.190;2024-01-15T06:27:05;4.20;58.70
3770;DHT22;1900;48.890;9.190;2024-01-15T06:29:31;4.20;58.60
3770;DHT22;1900;48.890;9.190;2024-01-15T06:31:57;4.20;58.70
3770;DHT22;1900;48.890;9.190;2024-01-15T06:34:22;4.20;58.70
3770;DHT22;1900;48.890;9.190;2024-01-15T06:36:48;4.20;58.70
3770;DHT22;1900;48.890;9.190;2024-01-15T06:39:14;4.20;59.20
3770;DHT22;1900;48.890;9.190;2024-01-15T06:41:40;4.20;58.70
3770;DHT22;1900;48.890;9.190;2024-01-15T06:44:12;4.20;59.20
3770;DHT22;1900;48.890;9.190;2024-01-15T06:46:45;4.20;58.70
3770;DHT22;1900;48.890;9.190;2024-01-15T06:49:11;4.20;58.70
3770;DHT22;1900;48.890;9.190;2024-01-15T06:51:37;4.20;58.80
3770;DHT22;1900;48.890;9.190;2024-01-15T06:54:03;4.30;59.40
3770;DHT22;1900;48.890;9.190;2024-01-15T06:56:29;4.40;60.30
3770;DHT22;1900;48.890;9.190;2024-01-15T06:58:55;4.60;61.20
3770;DHT22;1900;48.890;9.190;2024-01-15T07:01:20;4.80;62.00
3770;DHT22;1900;48.890;9.190;2024-01-15T07:03:46;5.00;62.50
3770;DHT22;1900;48.890;9.190;2024-01-15T07:06:12;5.10;62.00
3770;DHT22;1900;48.890;9.190;2024-01-15T07:08:41;5.20;61.40
3770;DHT22;1900;48.890;9.190;2024-01-15T07:11:07;5.20;60.70
3770;DHT22;1900;48.890;9.190;2024-01-15T07:13:33;5.20;60.20
3770;DHT22;1900;48.890;9.190;2024-01-15T07:15:59;5.30;60.00
3770;DHT22;1900;48.890;9.190;2024-01-15T07:18:25;5.20;59.80
3770;DHT22;1900;48.890;9.190;2024-01-15T07:20:51;5.20;59.60
3770;DHT22;1900;48.890;9.190;2024-01-15T07:23:16;5.20;59.50
3770;DHT22;1900;48.890;9.190;2024-01-15T07:25:43;5.20;59.40
3770;DHT22;1900;48.890;9.190;2024-01-15T07:28:09;5.10;59.30
3770;DHT22;1900;48.890;9.190;2024-01-15T07:30:34;5.10;59.20
3770;DHT22;1900;48.890;9.190;2024-01-15T07:33:00;5.10;59.20
3770;DHT22;1900;48.890;9.190;2024-01-15T07:35:26;5.00;59.10
3770;DHT22;1900;48.890;9.190;2024-01-15T07:37:52;5.00;59.00
3770;DHT22;1900;48.890;9.190;2024-01-15T07:40:18;5.00;59.00
3770;DHT22;1900;48.890;9.190;2024-01-15T07:42:44;5.00;58.90
3770;DHT22;1900;48.890;9.190;2024-01-15T07:45:10;4.90;58.90
3770;DHT22;1900;48.890;9.190;2024-01-15T07:47:36;4.90;58.90
3770;DHT22;1900;48.890;9.190;2024-01-15T07:50:03;4.90;58.80
3770;DHT22;1900;48.890;9.190;2024-01-15T07:52:30;4.90;58.80
3770;DHT22;1900;48.890;9.190;2024-01-15T07:54:56;4.80;58.80
3770;DHT22;1900;48.890;9.190;2024-01-15T07:57:22;4.90;59.00
3770;DHT22;1900;48.890;9.190;2024-01-15T07:59:50;4.80;58.90
3770;DHT22;1900;48.890;9.190;2024-01-15T08:02:17;4.80;58.90
3770;DHT22;1900;48.890;9.190;2024-01-15T08:04:43;4.80;58.90
3770;DHT22;1900;48.890;9.190;2024-01-15T08:07:08;4.80;58.90
3770;DHT22;1900;48.890;9.190;2024-01-15T08:09:34;4.80;59.00
3770;DHT22;1900;48.890;9.190;2024-01-15T08:12:00;4.80;59.10
3770;DHT22;1900;48.890;9.190;2024-01-15T08:14:26;4.80;59.10
3770;DHT22;1900;48.890;9.190;2024-01-15T08:16:52;4.80;59.10
3770;DHT22;1900;48.890;9.190;2024-01-15T08:19:18;4.80;59.10
3770;DHT22;1900;48.890;9.190;2024-01-15T08:21:45;4.80;59.10
3770;DHT22;1900;48.890;9.190;2024-01-15T08:24:29;4.80;59.10
3770;DHT22;1900;48.890;9.190;2024-01-15T08:26:55;4.80;59.10
3770;DHT22;1900;48.890;9.190;2024-01-15T08:29:21;4.80;59.10
3770;DHT22;1900;48.890;9.190;2024-01-15T08:31:47;4.80;59.00
3770;DHT22;1900;48.890;9.190;2024-01-15T08:34:13;4.80;58.90
3770;DHT22;1900;48.890;9.190;2024-01-15T08:36:39;4.80;58.90
3770;DHT22;1900;48.890;9.190;2024-01-15T08:39:07;4.80;59.00
3770;DHT22;1900;48.890;9.190;2024-01-15T08:41:34;4.80;59.10
3770;DHT22;1900;48.890;9.190;2024-01-15T08:44:01;4.80;59.00
3770;DHT22;1900;48.890;9.190;2024-01-15T08:46:28;4.80;59.00
3770;DHT22;1900;48.890;9.190;2024-01-15T08:48:54;4.80;59.00
3770;DHT22;1900;48.890;9.190;2024-01-15T08:51:20;4.80;58.90
3770;DHT22;1900;48.890;9.190;2024-01-15T08:53:46;4.80;59.00
3770;DHT22;1900;48.890;9.190;2024-01-15T08:56:12;4.80;59.00
3770;DHT22;1900;48.890;9.190;2024-01-15T08:58:37;4.80;59.10
3770;DHT22;1900;48.890;9.190;2024-01-15T09:01:03;4.80;59.10
3770;DHT22;1900;48.890;9.190;2024-01-15T09:03:30;4.80;59.10
3770;DHT22;1900;48.890;9.190;2024-01-15T09:05:55;4.90;59.20
3770;DHT22;1900;48.890;9.190;2024-01-15T09:08:21;4.90;59.20
3770;DHT22;1900;48.890;9.190;2024-01-15T09:10:47;4.90;59.20
3770;DHT22;1900;48.890;9.190;2024-01-15T09:13:13;4.90;59.20
3770;DHT22;1900;48.890;9.190;2024-01-15T09:15:38;4.90;59.20
3770;DHT22;1900;48.890;9.190;2024-01-15T09:18:04;5.00;59.30
3770;DHT22;1900;48.890;9.190;2024-01-15T09:20:30;5.00;59.40
3770;DHT22;1900;48.890;9.190;2024-01-15T09:22:56;5.00;59.40
3770;DHT22;1900;48.890;9.190;2024-01-15T09:25:22;5.00;59.40
3770;DHT22;1900;48.890;9.190;2024-01-15T09:27:48;5.00;59.30
3770;DHT22;1900;48.890;9.190;2024-01-15T09:30:14;5.00;59.30
3770;DHT22;1900;48.890;9.190;2024-01-15T09:32:39;5.00;59.90
3770;DHT22;1900;48.890;9.190;2024-01-15T09:35:06;5.00;59.30
3770;DHT22;1900;48.890;9.190;2024-01-15T09:37:32;5.10;59.40
3770;DHT22;1900;48.890;9.190;2024-01-15T09:39:57;5.10;59.40
3770;DHT22;1900;48.890;9.190;2024-01-15T09:42:27;5.10;59.40
3770;DHT22;1900;48.890;9.190;2024-01-15T09:44:54;5.10;59.30
3770;DHT22;1900;48.890;9.190;2024-01-15T09:47:20;5.10;59.30
3770;DHT22;1900;48.890;9.190;2024-01-15T09:49:47;5.10;59.30
3770;DHT22;1900;48.890;9.190;2024-01-15T09:52:14;5.10;59.40
3770;DHT22;1900;48.890;9.190;2024-01-15T09:54:43;5.20;59.50
3770;DHT22;1900;48.890;9.190;2024-01-15T09:57:10;5.20;59.50
3770;DHT22;1900;48.890;9.190;2024-01-15T09:59:36;5.20;59.50
3770;DHT22;1900;48.890;9.190;2024-01-15T10:02:03;5.20;59.50
3770;DHT22;1900;48.890;9.190;2024-01-15T10:04:29;5.20;59.50
3770;DHT22;1900;48.890;9.190;2024-01-15T10:06:56;5.20;59.50
3770;DHT22;1900;48.890;9.190;2024-01-15T10:09:23;5.20;59.40
3770;DHT22;1900;48.890;9.190;2024-01-15T10:11:49;5.30;59.50
3770;DHT22;1900;48.890;9.190;2024-01-15T10:14:15;5.30;59.50
3770;DHT22;1900;48.890;9.190;2024-01-15T10:16:41;5.30;59.50
3770;DHT22;1900;48.890;9.190;2024-01-15T10:19:08;5.30;59.50
3770;DHT22;1900;48.890;9.190;2024-01-15T10:21:34;5.30;59.60
3770;DHT22;1900;48.890;9.190;2024-01-15T10:24:00;5.40;59.60
3770;DHT22;1900;48.890;9.190;2024-01-15T10:26:27;5.40;59.60
3770;DHT22;1900;48.890;9.190;2024-01-15T10:28:53;5.40;59.50
3770;DHT22;1900;48.890;9.190;2024-01-15T10:31:18;5.40;59.50
3770;DHT22;1900;48.890;9.190;2024-01-15T10:33:48;5.40;59.50
3770;DHT22;1900;48.890;9.190;2024-01-15T10:36:16;5.40;59.50
3770;DHT22;1900;48.890;9.190;2024-01-15T10:38:43;5.40;59.50
3770;DHT22;1900;48.890;9.190;2024-01-15T10:41:09;5.40;59.50
3770;DHT22;1900;48.890;9.190;2024-01-15T10:43:35;5.40;59.50
3770;DHT22;1900;48.890;9.190;2024-01-15T10:46:01;5.40;59.40
3770;DHT22;1900;48.890;9.190;2024-01-15T10:48:27;5.50;59.50
3770;DHT22;1900;48.890;9.190;2024-01-15T10:50:57;5.40;59.30
3770;DHT22;1900;48.890;9.190;2024-01-15T10:53:23;5.40;59.30
3770;DHT22;1900;48.890;9.190;2024-01-15T10:55:50;5.50;59.50
3770;DHT22;1900;48.890;9.190;2024-01-15T10:58:17;5.50;59.40
3770;DHT22;1900;48.890;9.190;2024-01-15T11:00:43;5.50;59.40
3770;DHT22;1900;48.890;9.190;2024-01-15T11:03:10;5.40;59.30
3770;DHT22;1900;48.890;9.190;2024-01-15T11:05:42;5.40;59.30
3770;DHT22;1900;48.890;9.190;2024-01-15T11:08:08;5.40;59.30
3770;DHT22;1900;48.890;9.190;2024-01-15T11:10:41;5.40;59.20
3770;DHT22;1900;48.890;9.190;2024-01-15T11:13:09;5.40;59.20
3770;DHT22;1900;48.890;9.190;2024-01-15T11:18:22;5.40;59.30
3770;DHT22;1900;48.890;9.190;2024-01-15T11:21:19;5.40;59.30
3770;DHT22;1900;48.890;9.190;2024-01-15T11:23:54;5.40;59.30
3770;DHT22;1900;48.890;9.190;2024-01-15T11:26:45;5.40;59.30
3770;DHT22;1900;48.890;9.190;2024-01-15T11:34:21;5.30;59.20
3770;DHT22;1900;48.890;9.190;2024-01-15T11:37:07;5.30;59.30
3770;DHT22;1900;48.890;9.190;2024-01-15T11:42:00;5.30;59.40
3770;DHT22;1900;48.890;9.190;2024-01-15T11:44:27;5.30;59.40
3770;DHT22;1900;48.890;9.190;2024-01-15T11:50:03;5.30;59.40
3770;DHT22;1900;48.890;9.190;2024-01-15T11:52:33;5.30;59.40
3770;DHT22;1900;48.890;9.190;2024-01-15T11:55:41;5.30;59.40
3770;DHT22;1900;48.890;9.190;2024-01-15T11:58:09;5.30;59.40
3770;DHT22;1900;48.890;9.190;2024-01-15T12:00:44;5.30;59.40
3770;DHT22;1900;48.890;9.190;2024-01-15T12:03:11;5.30;59.40
3770;DHT22;1900;48.890;9.190;2024-01-15T12:05:37;5.30;59.50
3770;DHT22;1900;48.890;9.190;2024-01-15T12:08:04;5.30;59.50
3770;DHT22;1900;48.890;9.190;2024-01-15T12:10:39;5.30;59.50
3770;DHT22;1900;48.890;9.190;2024-01-15T12:13:11;5.30;59.40
3770;DHT22;1900;48.890;9.190;2024-01-15T12:15:56;5.30;59.40
3770;DHT22;1900;48.890;9.190;2024-01-15T12:18:21;5.30;59.40
3770;DHT22;1900;48.890;9.190;2024-01-15T12:20:47;5.20;59.40
3770;DHT22;1900;48.890;9.190;2024-01-15T12:23:13;5.20;59.40
3770;DHT22;1900;48.890;9.190;2024-01-15T12:25:39;5.20;59.40
3770;DHT22;1900;48.890;9.190;2024-01-15T12:28:06;5.20;59.40
3770;DHT22;1900;48.890;9.190;2024-01-15T12:30:35;5.20;59.40
3770;DHT22;1900;48.890;9.190;2024-01-15T12:33:06;5.20;59.40
3770;DHT22;1900;48.890;9.190;2024-01-15T12:35:35;5.20;59.40
3770;DHT22;1900;48.890;9.190;2024-01-15T12:38:02;5.20;59.40
3770;DHT22;1900;48.890;9.190;2024-01-15T12:40:28;5.20;59.40
3770;DHT22;1900;48.890;9.190;2024-01-15T12:42:54;5.20;59.40
3770;DHT22;1900;48.890;9.190;2024-01-15T12:45:20;5.20;60.00
3770;DHT22;1900;48.890;9.190;2024-01-15T12:47:46;5.20;59.50
3770;DHT22;1900;48.890;9.190;2024-01-15T12:50:13;5.20;59.40
3770;DHT22;1900;48.890;9.190;2024-01-15T12:52:42;5.20;59.40
3770;DHT22;1900;48.890;9.190;2024-01-15T12:55:09;5.20;59.50
3770;DHT22;1900;48.890;9.190;2024-01-15T12:57:35;5.20;59.50
3770;DHT22;1900;48.890;9.190;2024-01-15T13:00:03;5.20;60.10
3770;DHT22;1900;48.890;9.190;2024-01-15T13:02:33;5.20;59.60
3770;DHT22;1900;48.890;9.190;2024-01-15T13:04:59;5.20;59.60
3770;DHT22;1900;48.890;9.190;2024-01-15T13:07:25;5.20;60.20
3770;DHT22;1900;48.890;9.190;2024-01-15T13:09:52;5.20;59.60
3770;DHT22;1900;48.890;9.190;2024-01-15T13:12:20;5.20;59.70
3770;DHT22;1900;48.890;9.190;2024-01-15T13:14:46;5.20;59.70
3770;DHT22;1900;48.890;9.190;2024-01-15T13:17:13;5.20;59.70
3770;DHT22;1900;48.890;9.190;2024-01-15T13:19:40;5.20;59.70
3770;DHT22;1900;48.890;9.190;2024-01-15T13:22:06;5.20;59.60
3770;DHT22;1900;48.890;9.190;2024-01-15T13:24:35;5.20;59.60
3770;DHT22;1900;48.890;9.190;2024-01-15T13:27:02;5.20;59.60
3770;DHT22;1900;48.890;9.190;2024-01-15T13:29:29;5.20;59.70
3770;DHT22;1900;48.890;9.190;2024-01-15T13:31:56;5.20;59.70
3770;DHT22;1900;48.890;9.190;2024-01-15T13:34:21;5.20;59.70
3770;DHT22;1900;48.890;9.190;2024-01-15T13:36:47;5.20;59.60
3770;DHT22;1900;48.890;9.190;2024-01-15T13:39:31;5.20;59.50
3770;DHT22;1900;48.890;9.190;2024-01-15T13:41:58;5.20;59.40
3770;DHT22;1900;48.890;9.190;2024-01-15T13:44:24;5.10;59.30
3770;DHT22;1900;48.890;9.190;2024-01-15T13:46:50;5.10;59.40
3770;DHT22;1900;48.890;9.190;2024-01-15T13:49:18;5.10;59.50
3770;DHT22;1900;48.890;9.190;2024-01-15T13:51:43;5.10;59.50
3770;DHT22;1900;48.890;9.190;2024-01-15T13:54:09;5.10;59.50
3770;DHT22;1900;48.890;9.190;2024-01-15T13:56:35;5.10;59.50
3770;DHT22;1900;48.890;9.190;2024-01-15T13:59:01;5.10;59.60
3770;DHT22;1900;48.890;9.190;2024-01-15T14:01:29;5.10;59.60
3770;DHT22;1900;48.890;9.190;2024-01-15T14:03:55;5.10;59.50
3770;DHT22;1900;48.890;9.190;2024-01-15T14:06:21;5.10;59.40
3770;DHT22;1900;48.890;9.190;2024-01-15T14:08:47;5.00;59.30
3770;DHT22;1900;48.890;9.190;2024-01-15T14:11:13;5.00;59.30
3770;DHT22;1900;48.890;9.190;2024-01-15T14:13:41;5.00;59.30
3770;DHT22;1900;48.890;9.190;2024-01-15T14:16:07;5.00;59.30
3770;DHT22;1900;48.890;9.190;2024-01-15T14:18:33;5.00;59.30
3770;DHT22;1900;48.890;9.190;2024-01-15T14:20:58;4.90;59.30
3770;DHT22;1900;48.890;9.190;2024-01-15T14:23:24;4.90;59.30
3770;DHT22;1900;48.890;9.190;2024-01-15T14:25:50;4.90;59.40
3770;DHT22;1900;48.890;9.190;2024-01-15T14:28:15;4.90;59.40
3770;DHT22;1900;48.890;9.190;2024-01-15T14:30:41;4.80;59.20
3770;DHT22;1900;48.890;9.190;2024-01-15T14:33:08;4.80;59.30
3770;DHT22;1900;48.890;9.190;2024-01-15T14:35:33;4.80;59.30
3770;DHT22;1900;48.890;9.190;2024-01-15T14:37:59;4.70;59.30
3770;DHT22;1900;48.890;9.190;2024-01-15T14:40:25;4.70;59.30
3770;DHT22;1900;48.890;9.190;2024-01-15T14:42:51;4.80;59.50
3770;DHT22;1900;48.890;9.190;2024-01-15T14:45:17;4.70;59.40
3770;DHT22;1900;48.890;9.190;2024-01-15T14:47:44;4.70;59.40
3770;DHT22;1900;48.890;9.190;2024-01-15T14:50:10;4.70;59.50
3770;DHT22;1900;48.890;9.190;2024-01-15T14:52:36;4.70;59.60
3770;DHT22;1900;48.890;9.190;2024-01-15T14:55:02;4.70;59.50
3770;DHT22;1900;48.890;9.190;2024-01-15T14:57:28;4.70;59.40
3770;DHT22;1900;48.890;9.190;2024-01-15T14:59:53;4.70;59.40
3770;DHT22;1900;48.890;9.190;2024-01-15T15:02:20;4.60;59.30
3770;DHT22;1900;48.890;9.190;2024-01-15T15:04:46;4.70;59.40
3770;DHT22;1900;48.890;9.190;2024-01-15T15:07:11;4.60;59.30
3770;DHT22;1900;48.890;9.190;2024-01-15T15:09:37;4.60;59.40
3770;DHT22;1900;48.890;9.190;2024-01-15T15:12:04;4.60;60.00
3770;DHT22;1900;48.890;9.190;2024-01-15T15:14:31;4.60;59.40
3770;DHT22;1900;48.890;9.190;2024-01-15T15:17:06;4.70;59.60
3770;DHT22;1900;48.890;9.190;2024-01-15T15:19:32;4.60;59.40
3770;DHT22;1900;48.890;9.190;2024-01-15T15:21:58;4.60;59.40
3770;DHT22;1900;48.890;9.190;2024-01-15T15:24:25;4.60;59.50
3770;DHT22;1900;48.890;9.190;2024-01-15T15:26:51;4.60;60.00
3770;DHT22;1900;48.890;9.190;2024-01-15T15:29:17;4.60;59.30
3770;DHT22;1900;48.890;9.190;2024-01-15T15:31:44;4.60;59.30
3770;DHT22;1900;48.890;9.190;2024-01-15T15:34:10;4.60;59.30
3770;DHT22;1900;48.890;9.190;2024-01-15T15:36:36;4.50;59.30
3770;DHT22;1900;48.890;9.190;2024-01-15T15:39:02;4.50;59.30
3770;DHT22;1900;48.890;9.190;2024-01-15T15:41:28;4.50;59.30
3770;DHT22;1900;48.890;9.190;2024-01-15T15:43:54;4.50;59.30
3770;DHT22;1900;48.890;9.190;2024-01-15T15:46:20;4.50;59.30
3770;DHT22;1900;48.890;9.190;2024-01-15T15:48:46;4.50;59.30
3770;DHT22;1900;48.890;9.190;2024-01-15T15:51:11;4.50;59.40
3770;DHT22;1900;48.890;9.190;2024-01-15T15:53:37;4.50;59.40
3770;DHT22;1900;48.890;9.190;2024-01-15T15:56:03;4.50;59.50
3770;DHT22;1900;48.890;9.190;2024-01-15T15:58:29;4.50;59.40
3770;DHT22;1900;48.890;9.190;2024-01-15T16:00:55;4.50;59.50
3770;DHT22;1900;48.890;9.190;2024-01-15T16:03:22;4.50;59.40
3770;DHT22;1900;48.890;9.190;2024-01-15T16:05:47;4.50;59.50
3770;DHT22;1900;48.890;9.190;2024-01-15T16:08:13;4.50;59.40
3770;DHT22;1900;48.890;9.190;2024-01-15T16:10:39;4.50;59.40
3770;DHT22;1900;48.890;9.190;2024-01-15T16:13:05;4.50;59.40
3770;DHT22;1900;48.890;9.190;2024-01-15T16:15:31;4.50;59.40
3770;DHT22;1900;48.890;9.190;2024-01-15T16:17:58;4.50;59.30
3770;DHT22;1900;48.890;9.190;2024-01-15T16:20:24;4.50;59.30
3770;DHT22;1900;48.890;9.190;2024-01-15T16:22:50;4.50;59.40
3770;DHT22;1900;48.890;9.190;2024-01-15T16:25:17;4.50;59.40
3770;DHT22;1900;48.890;9.190;2024-01-15T16:27:43;4.50;59.50